Kalamazoo Battle Creek International Airport
KAZO : now visible

Airfield :











YOU CAN JOIN US ON...

 
LOGIN :

Register | Disclaimer

   EN    FR    IT 

 









Legend :    VFR   Marginal VFR   IFR   Intensive IFR   Very Intensive IFR
Visi :
Ceiling :
>= 8 km
>= 3000ft
5 to 8 km
1000 to 3000 ft
1500m to 5 km
500 to 1000 ft
800 to 1500m
200 to 500 ft
< 800m
< 200 ft
Symbols :   Thunderstorms  Fog  Heavy snow  Heavy precipitations  Wind > 20 kt






- Airport Elevation : 874 ft
- IATA code : AZO


KAZO - Kalamazoo Battle Creek International

CURRENT METAR :
  • 090053Z 11003KT 10SM BKN039 BKN050 OVC070 29/19 A2991 RMK AO2 TSB18E34 SLP121 T02940194

EXPIRED METARs :
  • 090024Z VRB05KT 10SM TS SCT055 32/20 A2990 RMK AO2 TSB18 T03170200
  • 082353Z 24006KT 10SM FEW055 31/20 A2989 RMK AO2 SLP114 T03110200 10344 20311 55008
  • 082253Z COR 26006KT 10SM FEW100 33/18 A2989 RMK AO2 SLP113 T03280183

TAF KAZO
Valid from the 09 at 00:00 until the 10 at 00:00 UTC


082349Z 0900/0924 VRB04KT P6SM SCT050
FM090900 VRB03KT P6SM BKN050
FM091400 19008KT P6SM BKN050
FM092000 20008KT P6SM VCTS BKN050CB
KZAU FIR / North America



MET'MAP, your aeronautical weather chart ! - Copyright ORBIFLY December 2007 - Disclaimer

ORBIFLY MET'MAP TEAM :

Programming & Development : Alexandra Zaïnal
Concept & original design : Baudouin d'Aumeries
Assistance for programming : Marc-Olivier Méhu
Technical & hardware support : Manuel Goepfert

Contact : metmap@orbifly.com




SOURCES & CREDITS :

   NOAA       Earth
Advisory